createdAt,value
2023-04-12T16:01:45.634Z,9.60
2023-04-12T16:03:19.518Z,11.60
2023-04-12T16:04:51.751Z,10.80
2023-04-12T16:06:25.462Z,7.60
2023-04-12T16:07:57.450Z,7.80
2023-04-12T16:09:29.894Z,8.00
2023-04-12T16:11:02.159Z,14.00
2023-04-12T16:12:34.708Z,17.80
2023-04-12T16:14:07.414Z,22.00
2023-04-12T16:15:39.667Z,24.00
2023-04-12T16:17:11.744Z,26.60
2023-04-12T16:18:46.956Z,32.20
2023-04-12T16:20:21.851Z,33.33
2023-04-12T16:21:54.749Z,35.25
2023-04-12T16:23:27.995Z,39.75
2023-04-12T16:24:59.850Z,46.75
2023-04-12T16:26:32.100Z,52.75
2023-04-12T16:28:04.296Z,56.50
2023-04-12T16:29:36.250Z,66.00
2023-04-12T16:31:08.302Z,69.20
2023-04-12T16:32:40.417Z,70.80
2023-04-12T16:34:12.466Z,79.00
2023-04-12T16:35:44.442Z,81.25
2023-04-12T16:37:16.356Z,81.75
2023-04-12T16:38:49.521Z,88.25
2023-04-12T16:40:22.363Z,88.50
2023-04-12T16:41:54.423Z,90.00
2023-04-12T16:43:26.584Z,99.50
2023-04-12T16:44:59.126Z,96.00
2023-04-12T16:46:31.096Z,98.25
2023-04-12T16:48:03.102Z,103.25
2023-04-12T16:49:35.527Z,103.50
2023-04-12T16:51:08.332Z,99.75
2023-04-12T16:52:41.596Z,110.00
2023-04-12T16:54:13.854Z,114.25
2023-04-12T16:55:49.337Z,113.75
2023-04-12T16:57:21.837Z,117.50
2023-04-12T16:58:53.853Z,113.75
2023-04-12T17:00:29.261Z,111.25
2023-04-12T17:02:01.337Z,117.00
2023-04-12T17:03:33.398Z,112.00
2023-04-12T17:05:06.492Z,111.75
2023-04-12T17:06:39.636Z,111.50
2023-04-12T17:08:13.008Z,100.50
2023-04-12T17:09:45.118Z,114.75
2023-04-12T17:11:17.309Z,107.50
2023-04-12T17:12:50.696Z,102.00
2023-04-12T17:14:23.216Z,112.25
2023-04-12T17:15:55.205Z,100.50
2023-04-12T17:17:27.846Z,105.50
2023-04-12T17:19:00.095Z,105.00
2023-04-12T17:20:32.597Z,103.75
2023-04-12T17:22:04.870Z,98.50
2023-04-12T17:23:37.107Z,117.75
2023-04-12T17:25:10.373Z,121.25
2023-04-12T17:26:42.341Z,108.75
2023-04-12T17:28:14.615Z,103.75
2023-04-12T17:29:46.896Z,93.00
2023-04-12T17:31:22.551Z,93.25
2023-04-12T17:32:54.713Z,84.25
2023-04-12T17:34:27.421Z,87.75
2023-04-12T17:35:59.312Z,87.75
2023-04-12T17:37:31.303Z,84.50
2023-04-12T17:39:05.146Z,71.75
2023-04-12T17:40:38.488Z,78.25
2023-04-12T17:42:10.599Z,77.25
2023-04-12T17:43:42.568Z,74.25
2023-04-12T17:45:16.234Z,80.75
2023-04-12T17:46:48.254Z,75.75
2023-04-12T17:48:20.482Z,81.25
2023-04-12T17:49:52.469Z,78.00
2023-04-12T17:51:24.754Z,79.50
2023-04-12T17:52:57.148Z,81.25
2023-04-12T17:54:29.493Z,82.25
2023-04-12T17:56:01.628Z,85.00
2023-04-12T17:57:33.649Z,75.50
2023-04-12T17:59:05.778Z,84.75
2023-04-12T18:00:37.785Z,75.00
2023-04-12T18:02:10.995Z,83.00
2023-04-12T18:03:43.461Z,80.00
2023-04-12T18:05:15.725Z,83.00
2023-04-12T18:06:47.709Z,82.00
2023-04-12T18:08:19.548Z,76.25
2023-04-12T18:09:51.625Z,89.25
2023-04-12T18:11:23.671Z,86.50
2023-04-12T18:12:55.844Z,81.50
2023-04-12T18:14:27.836Z,85.25
2023-04-12T18:15:59.996Z,76.25
2023-04-12T18:17:32.012Z,81.75
2023-04-12T18:19:04.863Z,81.75
2023-04-12T18:20:36.863Z,76.00
2023-04-12T18:22:08.883Z,85.00
2023-04-12T18:23:40.853Z,83.75
2023-04-12T18:25:12.919Z,83.00
2023-04-12T18:26:45.608Z,84.00
2023-04-12T18:28:18.612Z,92.25
2023-04-12T18:29:50.526Z,91.00
2023-04-12T18:31:22.950Z,88.00
2023-04-12T18:32:55.572Z,88.25
2023-04-12T18:34:27.765Z,90.25
2023-04-12T18:35:59.748Z,93.00
2023-04-12T18:37:32.040Z,108.75
2023-04-12T18:39:04.790Z,134.67
2023-04-12T18:40:38.153Z,119.00
2023-04-12T18:42:10.136Z,103.50
2023-04-12T18:43:42.709Z,236.00
2023-04-12T18:45:15.196Z,193.50
2023-04-12T18:46:47.227Z,217.00
2023-04-12T18:48:19.223Z,169.25
2023-04-12T18:49:51.108Z,148.00
2023-04-12T18:51:23.545Z,140.00
2023-04-12T18:52:55.456Z,133.00
2023-04-12T18:54:27.991Z,126.33
2023-04-12T18:56:12.381Z,123.25
2023-04-12T18:57:45.219Z,112.75
2023-04-12T18:59:18.031Z,110.50
2023-04-12T19:00:50.700Z,110.50
2023-04-12T19:02:22.718Z,110.75
2023-04-12T19:03:54.724Z,108.50
2023-04-12T19:05:27.829Z,121.00
2023-04-12T19:06:59.718Z,95.75
2023-04-12T19:08:31.637Z,110.00
2023-04-12T19:10:04.376Z,97.75
2023-04-12T19:11:37.215Z,92.50
2023-04-12T19:13:09.147Z,87.75
2023-04-12T19:14:41.058Z,92.00
2023-04-12T19:16:13.982Z,100.75
2023-04-12T19:17:46.513Z,88.75
2023-04-12T19:19:18.454Z,98.50
2023-04-12T19:20:50.389Z,95.00
2023-04-12T19:22:22.932Z,98.75
2023-04-12T19:23:54.938Z,95.00
2023-04-12T19:25:30.958Z,98.75
2023-04-12T19:27:03.830Z,102.75
2023-04-12T19:28:35.905Z,93.00
2023-04-12T19:30:11.093Z,93.25
2023-04-12T19:31:47.715Z,97.00
2023-04-12T19:33:20.144Z,91.75
2023-04-12T19:34:52.271Z,95.25
2023-04-12T19:36:24.877Z,94.00
2023-04-12T19:37:58.578Z,95.25
2023-04-12T19:39:31.674Z,93.25
2023-04-12T19:41:03.688Z,95.50
2023-04-12T19:42:35.983Z,94.00
2023-04-12T19:44:07.969Z,92.75
2023-04-12T19:45:40.460Z,94.25
2023-04-12T19:47:12.457Z,90.25
2023-04-12T19:48:45.522Z,98.00
2023-04-12T19:50:18.144Z,98.75
2023-04-12T19:51:50.993Z,99.75
2023-04-12T19:53:22.924Z,101.75
2023-04-12T19:54:57.087Z,95.50
2023-04-12T19:56:31.084Z,102.00
2023-04-12T19:58:04.024Z,100.50
2023-04-12T19:59:36.975Z,102.25
2023-04-12T20:01:10.060Z,102.25
2023-04-12T20:02:42.492Z,107.75
2023-04-12T20:04:21.320Z,104.75
2023-04-12T20:05:53.358Z,101.00
2023-04-12T20:07:25.330Z,104.75
2023-04-12T20:08:57.494Z,101.25
2023-04-12T20:10:29.500Z,108.00
2023-04-12T20:12:02.000Z,100.75
2023-04-12T20:13:34.453Z,101.50
2023-04-12T20:15:11.883Z,97.00
2023-04-12T20:16:43.965Z,104.25
2023-04-12T20:18:16.106Z,89.00
2023-04-12T20:19:47.985Z,111.25
2023-04-12T20:21:21.809Z,96.75
2023-04-12T20:22:53.746Z,95.25
2023-04-12T20:24:25.841Z,114.25
2023-04-12T20:25:58.067Z,110.50
2023-04-12T20:27:31.655Z,114.00
2023-04-12T20:29:08.157Z,120.25
2023-04-12T20:30:40.495Z,117.75
2023-04-12T20:32:15.405Z,123.00
2023-04-12T20:33:47.504Z,113.00
2023-04-12T20:35:19.341Z,114.50
2023-04-12T20:36:55.101Z,109.50
2023-04-12T20:38:27.180Z,112.25
2023-04-12T20:39:59.620Z,108.50
2023-04-12T20:41:31.606Z,110.75
2023-04-12T20:43:04.702Z,112.25
2023-04-12T20:44:37.584Z,106.50
2023-04-12T20:46:15.475Z,117.25
2023-04-12T20:47:47.574Z,106.00
2023-04-12T20:49:20.141Z,114.00
2023-04-12T20:50:52.158Z,101.75
2023-04-12T20:52:24.259Z,107.25
2023-04-12T20:53:58.555Z,103.00
2023-04-12T20:55:32.948Z,104.50
2023-04-12T20:57:04.858Z,92.75
2023-04-12T20:58:37.177Z,100.25
2023-04-12T21:00:14.638Z,92.50
2023-04-12T21:01:47.102Z,98.50
2023-04-12T21:03:19.319Z,93.50
2023-04-12T21:04:51.732Z,85.75
2023-04-12T21:06:23.566Z,91.50
2023-04-12T21:07:55.589Z,82.00
2023-04-12T21:09:28.224Z,87.25
2023-04-12T21:11:00.978Z,79.00
2023-04-12T21:12:32.922Z,79.75
2023-04-12T21:14:05.306Z,84.25
2023-04-12T21:15:37.257Z,77.00
2023-04-12T21:17:09.101Z,82.00
2023-04-12T21:18:41.665Z,71.50
2023-04-12T21:20:13.899Z,77.75
2023-04-12T21:21:46.174Z,68.20
2023-04-12T21:23:18.304Z,71.60
2023-04-12T21:24:50.256Z,72.60
2023-04-12T21:26:22.227Z,70.20
2023-04-12T21:27:54.230Z,66.60
2023-04-12T21:29:26.139Z,62.20
2023-04-12T21:30:58.684Z,66.40
2023-04-12T21:32:32.678Z,68.40
2023-04-12T21:34:04.609Z,58.50
2023-04-12T21:35:36.470Z,56.75
2023-04-12T21:37:08.412Z,72.20
2023-04-12T21:38:40.379Z,71.20
2023-04-12T21:40:12.915Z,60.00
2023-04-12T21:41:44.782Z,56.75
2023-04-12T21:43:16.805Z,53.00
2023-04-12T21:44:48.706Z,53.75
2023-04-12T21:46:20.900Z,54.25
2023-04-12T21:47:53.420Z,45.25
2023-04-12T21:49:25.376Z,51.75
2023-04-12T21:50:57.155Z,63.25
2023-04-12T21:52:29.197Z,62.40
2023-04-12T21:54:01.175Z,67.60
2023-04-12T21:55:33.098Z,61.60
2023-04-12T21:57:06.386Z,63.80
2023-04-12T21:58:38.298Z,61.80
2023-04-12T22:00:10.792Z,64.80
2023-04-12T22:01:48.468Z,65.20
2023-04-12T22:03:20.656Z,64.75
2023-04-12T22:04:52.720Z,65.20
2023-04-12T22:06:24.703Z,69.80
2023-04-12T22:07:56.624Z,75.75
2023-04-12T22:09:28.572Z,76.50
2023-04-12T22:11:00.635Z,79.50
2023-04-12T22:12:33.998Z,73.50
2023-04-12T22:14:06.046Z,84.50
2023-04-12T22:15:38.627Z,83.75
2023-04-12T22:17:10.854Z,83.50
2023-04-12T22:18:45.782Z,83.25
2023-04-12T22:20:17.986Z,77.00
2023-04-12T22:21:49.876Z,75.75
2023-04-12T22:23:21.700Z,85.75
2023-04-12T22:24:54.004Z,86.75
2023-04-12T22:26:26.048Z,84.00
2023-04-12T22:27:58.533Z,93.25
2023-04-12T22:29:30.612Z,94.00
2023-04-12T22:31:02.826Z,90.50
2023-04-12T22:32:34.999Z,93.00
2023-04-12T22:34:07.027Z,88.75
